Nearby METAR Reports

 

KSJC - San Jose, California, USA
Distance from station: NØ 14km
Oppdatert: 01/04/2020 15:53
Hovedsaklig skyet
Hovedsaklig skyet
 Vind fra NV
Vind: NV 11 km/h
Temperatur: 9°C
Wind Chill: 7°C
Duggpunkt: 5°C
Fuktighet: 76%
Barometer: 1016.6 hPa
Clouds: Hovedsaklig skyet
Visibility: 16 km
Cloud details: Few Clouds 549 m
Hovedsaklig skyet 732 m
2020/04/01 13:53 KSJC 011353Z 31006KT 10SM FEW018 BKN024 09/05 A3002 RMK AO2 SLP163 T00940050
KNUQ - Moffett Nas/Mtn, California, USA
Distance from station: N 14km
Oppdatert: 21/11/2019 17:56
NOT Current

 
Barometer: 1011.2 hPa
2019/11/21 16:56 KNUQ 211656Z AUTO A2986 RMK AO2 SLP116 PWINO $
 
KPAO - Palo Alto, California, USA
Distance from station: NNV 23km
Oppdatert: 01/04/2020 15:47
Few Clouds
Few Clouds
 Vind fra V
Vind: V 15 km/h
Temperatur: 8°C
Wind Chill: 5°C
Duggpunkt: 6°C
Fuktighet: 87%
Barometer: 1016.6 hPa
Clouds: Few Clouds
Visibility: 14 km
Cloud details: Few Clouds 762 m
2020/04/01 13:47 KPAO 011347Z 28008KT 9SM FEW025 08/06 A3002
KRHV - San Jose/Reid, California, USA
Distance from station: ØNØ 19km
Oppdatert: 01/04/2020 15:50
Delvis skyet
Delvis skyet
 Vind fra NV
Vind: NV 11 km/h
Temperatur: 9°C
Wind Chill: 7°C
Duggpunkt: 6°C
Fuktighet: 82%
Barometer: 1016.6 hPa
Clouds: Delvis skyet
Visibility: 16 km
Cloud details: Delvis skyet 762 m
2020/04/01 13:50 KRHV 011350Z 31006KT 10SM SCT025 09/06 A3002
 
KOAK - Oakland, California, USA
Distance from station: NNV 50km
Oppdatert: 01/04/2020 15:53
Few Clouds
Few Clouds
 Vind fra NNV
Vind: NNV 7 km/h
Temperatur: 10°C
Wind Chill: 9°C
Duggpunkt: 5°C
Fuktighet: 71%
Barometer: 1016.6 hPa
Clouds: Few Clouds
Visibility: 16 km
Cloud details: Few Clouds 305 m
2020/04/01 13:53 KOAK 011353Z 34004KT 10SM FEW010 10/05 A3002 RMK AO2 SLP165 T01000050
KSQL - San Carlos Airpo, California, USA
Distance from station: NV 34km
Oppdatert: 01/04/2020 15:55
Klart
Klart
 Vind fra V
Vind: V 9 km/h
Temperatur: 9°C
Wind Chill: 7°C
Duggpunkt: 5°C
Fuktighet: 76%
Barometer: 1016.9 hPa
Clouds: Klart
Visibility: 16 km
2020/04/01 13:55 KSQL 011355Z AUTO 26005KT 10SM CLR 09/05 A3003 RMK AO2
 
KSFO - San Francisco, California, USA
Distance from station: NV 49km
Oppdatert: 01/04/2020 15:56
Few Clouds
Few Clouds
 Vind fra VNV
Vind: VNV 24 km/h
Temperatur: 11°C
Duggpunkt: 4°C
Fuktighet: 62%
Barometer: 1016.3 hPa
Clouds: Few Clouds
Visibility: 16 km
Cloud details: Few Clouds 762 m
2020/04/01 13:56 KSFO 011356Z 30013KT 10SM FEW025 11/04 A3001 RMK AO2 SLP163 T01060039
KE16 - San Martin, California, USA
Distance from station: ØSØ 43km
Oppdatert: 14/11/2019 10:35
NOT Current
Overskyet
Overskyet
 Vind fra SØ
Vind: SØ 11 km/h
Temperatur: 12°C
Duggpunkt: 10°C
Fuktighet: 88%
Barometer: 1017.6 hPa
Clouds: Overskyet
Visibility: 16 km
Cloud details: Overskyet 427 m
2019/11/14 09:35 KE16 140935Z AUTO 13006KT 10SM OVC014 12/10 A3005 RMK AO2
 
KWVI - Watsonville, California, USA
Distance from station: SSØ 44km
Oppdatert: 01/04/2020 15:53
Hovedsaklig skyet
Hovedsaklig skyet
 Vind fra calm
Vind: Stille
Temperatur: 11°C
Duggpunkt: 10°C
Fuktighet: 94%
Barometer: 1015.9 hPa
Clouds: Hovedsaklig skyet
Visibility: 16 km
Cloud details: Hovedsaklig skyet 701 m
2020/04/01 13:53 KWVI 011353Z AUTO 00000KT 10SM BKN023 11/10 A3000 RMK AO2 SLP159 T01110100
KHAF - Half Moon Bay, California, USA
Distance from station: VNV 50km
Oppdatert: 01/04/2020 16:40
Delvis skyet
Delvis skyet
 Vind fra NNV
Vind: NNV 31 km/h, Vindkast: 43 km/h
Temperatur: 10°C
Wind Chill: 7°C
Duggpunkt: 5°C
Fuktighet: 71%
Barometer: 1016.9 hPa
Clouds: Delvis skyet
Visibility: 16 km
Cloud details: Delvis skyet 792 m
2020/04/01 14:40 KHAF 011440Z AUTO 34017G23KT 10SM SCT026 10/05 A3003 RMK AO2
 
KHWD - Hayward, California, USA
Distance from station: N 44km
Oppdatert: 01/04/2020 15:54
Klart
Klart
 Vind fra calm
Vind: Stille
Temperatur: 9°C
Duggpunkt: 4°C
Fuktighet: 71%
Barometer: 1016.3 hPa
Clouds: Klart
Visibility: 16 km
2020/04/01 13:54 KHWD 011354Z 00000KT 10SM CLR 09/04 A3001 RMK AO2 SLP171 T00890039
KLVK - Livermore, California, USA
Distance from station: NNØ 51km
Oppdatert: 01/04/2020 15:53
Klart
Klart
 Vind fra VSV
Vind: VSV 7 km/h
Temperatur: 7°C
Wind Chill: 6°C
Duggpunkt: 6°C
Fuktighet: 93%
Barometer: 1015.9 hPa
Clouds: Klart
Visibility: 16 km
2020/04/01 13:53 KLVK 011353Z 25004KT 10SM CLR 07/06 A3000 RMK AO2 SLP156 T00720056